sensor_id;sensor_type;location;lat;lon;timestamp;P1;durP1;ratioP1;P2;durP2;ratioP2
14282;SDS011;7225;59.282;18.344;2022-08-21T00:00:20;1.93;;;0.60;;
14282;SDS011;7225;59.282;18.344;2022-08-21T00:03:02;4.97;;;0.90;;
14282;SDS011;7225;59.282;18.344;2022-08-21T00:05:32;2.83;;;0.77;;
14282;SDS011;7225;59.282;18.344;2022-08-21T00:08:04;3.83;;;0.90;;
14282;SDS011;7225;59.282;18.344;2022-08-21T00:10:32;2.87;;;1.07;;
14282;SDS011;7225;59.282;18.344;2022-08-21T00:13:00;4.47;;;1.17;;
14282;SDS011;7225;59.282;18.344;2022-08-21T00:15:31;0.60;;;0.40;;
14282;SDS011;7225;59.282;18.344;2022-08-21T00:18:04;3.70;;;1.00;;
14282;SDS011;7225;59.282;18.344;2022-08-21T00:20:34;4.40;;;0.90;;
14282;SDS011;7225;59.282;18.344;2022-08-21T00:23:01;3.97;;;1.30;;
14282;SDS011;7225;59.282;18.344;2022-08-21T00:25:28;3.20;;;0.80;;
14282;SDS011;7225;59.282;18.344;2022-08-21T00:27:56;3.43;;;0.80;;
14282;SDS011;7225;59.282;18.344;2022-08-21T00:30:25;2.97;;;0.80;;
14282;SDS011;7225;59.282;18.344;2022-08-21T00:32:52;1.93;;;1.00;;
14282;SDS011;7225;59.282;18.344;2022-08-21T00:35:24;2.47;;;0.73;;
14282;SDS011;7225;59.282;18.344;2022-08-21T00:37:55;5.10;;;1.33;;
14282;SDS011;7225;59.282;18.344;2022-08-21T00:40:28;3.43;;;0.87;;
14282;SDS011;7225;59.282;18.344;2022-08-21T00:43:02;1.50;;;0.70;;
14282;SDS011;7225;59.282;18.344;2022-08-21T00:45:32;1.10;;;0.63;;
14282;SDS011;7225;59.282;18.344;2022-08-21T00:48:01;4.03;;;1.17;;
14282;SDS011;7225;59.282;18.344;2022-08-21T00:50:31;2.37;;;0.97;;
14282;SDS011;7225;59.282;18.344;2022-08-21T00:53:02;4.50;;;0.70;;
14282;SDS011;7225;59.282;18.344;2022-08-21T00:55:32;2.70;;;0.87;;
14282;SDS011;7225;59.282;18.344;2022-08-21T00:58:01;4.50;;;0.90;;
14282;SDS011;7225;59.282;18.344;2022-08-21T01:00:31;3.17;;;1.07;;
14282;SDS011;7225;59.282;18.344;2022-08-21T01:03:04;3.70;;;0.80;;
14282;SDS011;7225;59.282;18.344;2022-08-21T01:05:36;5.57;;;1.10;;
14282;SDS011;7225;59.282;18.344;2022-08-21T01:08:05;2.60;;;0.80;;
14282;SDS011;7225;59.282;18.344;2022-08-21T01:10:35;3.73;;;0.97;;
14282;SDS011;7225;59.282;18.344;2022-08-21T01:13:05;3.23;;;1.03;;
14282;SDS011;7225;59.282;18.344;2022-08-21T01:15:36;1.70;;;0.60;;
14282;SDS011;7225;59.282;18.344;2022-08-21T01:18:07;3.40;;;1.47;;
14282;SDS011;7225;59.282;18.344;2022-08-21T01:20:37;4.43;;;1.27;;
14282;SDS011;7225;59.282;18.344;2022-08-21T01:23:07;3.27;;;0.83;;
14282;SDS011;7225;59.282;18.344;2022-08-21T01:25:35;2.50;;;0.90;;
14282;SDS011;7225;59.282;18.344;2022-08-21T01:28:09;2.90;;;0.70;;
14282;SDS011;7225;59.282;18.344;2022-08-21T01:30:40;3.03;;;0.80;;
14282;SDS011;7225;59.282;18.344;2022-08-21T01:33:09;4.63;;;1.20;;
14282;SDS011;7225;59.282;18.344;2022-08-21T01:35:37;3.73;;;1.07;;
14282;SDS011;7225;59.282;18.344;2022-08-21T01:38:05;2.30;;;0.80;;
14282;SDS011;7225;59.282;18.344;2022-08-21T01:40:34;2.70;;;0.90;;
14282;SDS011;7225;59.282;18.344;2022-08-21T01:43:02;3.40;;;0.87;;
14282;SDS011;7225;59.282;18.344;2022-08-21T01:45:29;4.90;;;0.87;;
14282;SDS011;7225;59.282;18.344;2022-08-21T01:47:57;1.80;;;0.70;;
14282;SDS011;7225;59.282;18.344;2022-08-21T01:50:26;3.57;;;0.90;;
14282;SDS011;7225;59.282;18.344;2022-08-21T01:52:53;4.07;;;0.80;;
14282;SDS011;7225;59.282;18.344;2022-08-21T01:55:21;4.07;;;1.40;;
14282;SDS011;7225;59.282;18.344;2022-08-21T01:57:49;4.43;;;1.37;;
14282;SDS011;7225;59.282;18.344;2022-08-21T02:00:18;4.63;;;1.10;;
14282;SDS011;7225;59.282;18.344;2022-08-21T02:02:50;4.83;;;1.43;;
14282;SDS011;7225;59.282;18.344;2022-08-21T02:05:18;3.70;;;0.80;;
14282;SDS011;7225;59.282;18.344;2022-08-21T02:07:47;3.80;;;0.87;;
14282;SDS011;7225;59.282;18.344;2022-08-21T02:10:19;5.57;;;1.20;;
14282;SDS011;7225;59.282;18.344;2022-08-21T02:12:50;3.13;;;1.40;;
14282;SDS011;7225;59.282;18.344;2022-08-21T02:15:18;3.40;;;1.13;;
14282;SDS011;7225;59.282;18.344;2022-08-21T02:17:47;4.30;;;1.30;;
14282;SDS011;7225;59.282;18.344;2022-08-21T02:20:19;6.30;;;1.33;;
14282;SDS011;7225;59.282;18.344;2022-08-21T02:22:58;3.70;;;1.80;;
14282;SDS011;7225;59.282;18.344;2022-08-21T02:25:27;6.13;;;1.43;;
14282;SDS011;7225;59.282;18.344;2022-08-21T02:27:57;7.37;;;1.43;;
14282;SDS011;7225;59.282;18.344;2022-08-21T02:30:29;3.43;;;1.03;;
14282;SDS011;7225;59.282;18.344;2022-08-21T02:33:01;3.10;;;0.80;;
14282;SDS011;7225;59.282;18.344;2022-08-21T02:35:28;5.30;;;1.07;;
14282;SDS011;7225;59.282;18.344;2022-08-21T02:37:59;3.27;;;1.30;;
14282;SDS011;7225;59.282;18.344;2022-08-21T02:40:30;6.83;;;1.47;;
14282;SDS011;7225;59.282;18.344;2022-08-21T02:42:59;3.70;;;0.90;;
14282;SDS011;7225;59.282;18.344;2022-08-21T02:45:28;3.77;;;1.00;;
14282;SDS011;7225;59.282;18.344;2022-08-21T02:48:00;3.40;;;1.07;;
14282;SDS011;7225;59.282;18.344;2022-08-21T02:50:31;4.53;;;1.13;;
14282;SDS011;7225;59.282;18.344;2022-08-21T02:53:01;3.27;;;1.47;;
14282;SDS011;7225;59.282;18.344;2022-08-21T02:55:31;4.27;;;1.20;;
14282;SDS011;7225;59.282;18.344;2022-08-21T02:58:01;5.17;;;1.27;;
14282;SDS011;7225;59.282;18.344;2022-08-21T03:00:32;6.80;;;1.43;;
14282;SDS011;7225;59.282;18.344;2022-08-21T03:03:04;5.40;;;1.40;;
14282;SDS011;7225;59.282;18.344;2022-08-21T03:05:33;3.13;;;1.00;;
14282;SDS011;7225;59.282;18.344;2022-08-21T03:08:01;1.90;;;1.07;;
14282;SDS011;7225;59.282;18.344;2022-08-21T03:10:31;2.97;;;1.03;;
14282;SDS011;7225;59.282;18.344;2022-08-21T03:12:58;5.93;;;1.40;;
14282;SDS011;7225;59.282;18.344;2022-08-21T03:15:27;3.97;;;1.27;;
14282;SDS011;7225;59.282;18.344;2022-08-21T03:17:55;5.07;;;1.30;;
14282;SDS011;7225;59.282;18.344;2022-08-21T03:20:24;2.93;;;1.10;;
14282;SDS011;7225;59.282;18.344;2022-08-21T03:22:54;4.63;;;1.30;;
14282;SDS011;7225;59.282;18.344;2022-08-21T03:25:23;5.27;;;1.20;;
14282;SDS011;7225;59.282;18.344;2022-08-21T03:28:13;3.23;;;1.47;;
14282;SDS011;7225;59.282;18.344;2022-08-21T03:30:45;5.03;;;1.80;;
14282;SDS011;7225;59.282;18.344;2022-08-21T03:33:15;4.33;;;1.50;;
14282;SDS011;7225;59.282;18.344;2022-08-21T03:36:00;3.83;;;1.53;;
14282;SDS011;7225;59.282;18.344;2022-08-21T03:38:30;4.40;;;1.60;;
14282;SDS011;7225;59.282;18.344;2022-08-21T03:40:59;4.23;;;1.43;;
14282;SDS011;7225;59.282;18.344;2022-08-21T03:43:27;4.20;;;1.10;;
14282;SDS011;7225;59.282;18.344;2022-08-21T03:45:58;5.67;;;1.60;;
14282;SDS011;7225;59.282;18.344;2022-08-21T03:48:28;2.43;;;1.17;;
14282;SDS011;7225;59.282;18.344;2022-08-21T03:50:58;6.37;;;1.50;;
14282;SDS011;7225;59.282;18.344;2022-08-21T03:53:27;6.10;;;1.53;;
14282;SDS011;7225;59.282;18.344;2022-08-21T03:55:55;7.20;;;1.67;;
14282;SDS011;7225;59.282;18.344;2022-08-21T03:58:25;8.00;;;1.47;;
14282;SDS011;7225;59.282;18.344;2022-08-21T04:00:56;5.03;;;1.43;;
14282;SDS011;7225;59.282;18.344;2022-08-21T04:03:27;6.07;;;1.70;;
14282;SDS011;7225;59.282;18.344;2022-08-21T04:05:56;7.70;;;1.57;;
14282;SDS011;7225;59.282;18.344;2022-08-21T04:08:25;6.50;;;1.13;;
14282;SDS011;7225;59.282;18.344;2022-08-21T04:10:54;3.43;;;1.57;;
14282;SDS011;7225;59.282;18.344;2022-08-21T04:13:24;8.30;;;1.67;;
14282;SDS011;7225;59.282;18.344;2022-08-21T04:15:54;5.70;;;1.47;;
14282;SDS011;7225;59.282;18.344;2022-08-21T04:18:23;5.37;;;1.50;;
14282;SDS011;7225;59.282;18.344;2022-08-21T04:20:53;4.43;;;2.00;;
14282;SDS011;7225;59.282;18.344;2022-08-21T04:23:24;6.20;;;2.20;;
14282;SDS011;7225;59.282;18.344;2022-08-21T04:25:53;5.30;;;1.63;;
14282;SDS011;7225;59.282;18.344;2022-08-21T04:28:22;5.93;;;1.90;;
14282;SDS011;7225;59.282;18.344;2022-08-21T04:30:57;7.03;;;2.20;;
14282;SDS011;7225;59.282;18.344;2022-08-21T04:33:24;5.80;;;2.17;;
14282;SDS011;7225;59.282;18.344;2022-08-21T04:35:52;10.87;;;1.70;;
14282;SDS011;7225;59.282;18.344;2022-08-21T04:38:20;3.47;;;1.63;;
14282;SDS011;7225;59.282;18.344;2022-08-21T04:40:49;5.87;;;1.83;;
14282;SDS011;7225;59.282;18.344;2022-08-21T04:43:18;9.77;;;2.23;;
14282;SDS011;7225;59.282;18.344;2022-08-21T04:45:48;6.67;;;1.83;;
14282;SDS011;7225;59.282;18.344;2022-08-21T04:48:18;6.57;;;2.50;;
14282;SDS011;7225;59.282;18.344;2022-08-21T04:50:57;5.23;;;1.77;;
14282;SDS011;7225;59.282;18.344;2022-08-21T04:53:30;8.97;;;2.60;;
14282;SDS011;7225;59.282;18.344;2022-08-21T04:56:05;5.20;;;1.90;;
14282;SDS011;7225;59.282;18.344;2022-08-21T04:59:10;5.13;;;1.90;;
14282;SDS011;7225;59.282;18.344;2022-08-21T05:01:43;5.50;;;1.70;;
14282;SDS011;7225;59.282;18.344;2022-08-21T05:04:12;7.17;;;1.80;;
14282;SDS011;7225;59.282;18.344;2022-08-21T05:06:43;7.13;;;1.77;;
14282;SDS011;7225;59.282;18.344;2022-08-21T05:09:14;8.20;;;1.60;;
14282;SDS011;7225;59.282;18.344;2022-08-21T05:11:43;4.03;;;1.70;;
14282;SDS011;7225;59.282;18.344;2022-08-21T05:14:12;3.50;;;1.50;;
14282;SDS011;7225;59.282;18.344;2022-08-21T05:16:40;6.67;;;1.90;;
14282;SDS011;7225;59.282;18.344;2022-08-21T05:19:08;8.57;;;2.03;;
14282;SDS011;7225;59.282;18.344;2022-08-21T05:21:40;6.37;;;2.03;;
14282;SDS011;7225;59.282;18.344;2022-08-21T05:24:10;7.00;;;1.97;;
14282;SDS011;7225;59.282;18.344;2022-08-21T05:26:39;3.90;;;1.50;;
14282;SDS011;7225;59.282;18.344;2022-08-21T05:29:14;5.37;;;1.90;;
14282;SDS011;7225;59.282;18.344;2022-08-21T05:31:45;5.77;;;1.70;;
14282;SDS011;7225;59.282;18.344;2022-08-21T05:34:14;2.43;;;1.63;;
14282;SDS011;7225;59.282;18.344;2022-08-21T05:36:46;7.60;;;2.23;;
14282;SDS011;7225;59.282;18.344;2022-08-21T05:39:14;3.47;;;1.70;;
14282;SDS011;7225;59.282;18.344;2022-08-21T05:41:41;3.27;;;1.83;;
14282;SDS011;7225;59.282;18.344;2022-08-21T05:44:09;7.17;;;2.37;;
14282;SDS011;7225;59.282;18.344;2022-08-21T05:46:37;5.57;;;1.70;;
14282;SDS011;7225;59.282;18.344;2022-08-21T05:49:05;6.40;;;1.90;;
14282;SDS011;7225;59.282;18.344;2022-08-21T05:51:32;5.93;;;1.83;;
14282;SDS011;7225;59.282;18.344;2022-08-21T05:54:00;5.13;;;1.90;;
14282;SDS011;7225;59.282;18.344;2022-08-21T05:56:28;3.43;;;1.70;;
14282;SDS011;7225;59.282;18.344;2022-08-21T05:58:55;5.33;;;1.50;;
14282;SDS011;7225;59.282;18.344;2022-08-21T06:01:23;6.93;;;2.27;;
14282;SDS011;7225;59.282;18.344;2022-08-21T06:03:52;4.37;;;1.83;;
14282;SDS011;7225;59.282;18.344;2022-08-21T06:06:23;3.13;;;1.43;;
14282;SDS011;7225;59.282;18.344;2022-08-21T06:08:51;4.37;;;1.80;;
14282;SDS011;7225;59.282;18.344;2022-08-21T06:11:20;6.30;;;1.90;;
14282;SDS011;7225;59.282;18.344;2022-08-21T06:13:54;4.03;;;1.63;;
14282;SDS011;7225;59.282;18.344;2022-08-21T06:16:23;5.87;;;1.70;;
14282;SDS011;7225;59.282;18.344;2022-08-21T06:18:51;4.20;;;2.00;;
14282;SDS011;7225;59.282;18.344;2022-08-21T06:21:20;5.67;;;2.27;;
14282;SDS011;7225;59.282;18.344;2022-08-21T06:23:48;6.73;;;2.00;;
14282;SDS011;7225;59.282;18.344;2022-08-21T06:26:16;8.83;;;2.10;;
14282;SDS011;7225;59.282;18.344;2022-08-21T06:28:44;3.43;;;1.73;;
14282;SDS011;7225;59.282;18.344;2022-08-21T06:31:13;6.47;;;1.87;;
14282;SDS011;7225;59.282;18.344;2022-08-21T06:33:42;4.73;;;1.80;;
14282;SDS011;7225;59.282;18.344;2022-08-21T06:36:10;7.03;;;2.40;;
14282;SDS011;7225;59.282;18.344;2022-08-21T06:38:38;8.03;;;1.77;;
14282;SDS011;7225;59.282;18.344;2022-08-21T06:41:06;9.97;;;2.00;;
14282;SDS011;7225;59.282;18.344;2022-08-21T06:43:36;5.77;;;1.97;;
14282;SDS011;7225;59.282;18.344;2022-08-21T06:46:07;5.50;;;2.03;;
14282;SDS011;7225;59.282;18.344;2022-08-21T06:48:34;2.60;;;1.90;;
14282;SDS011;7225;59.282;18.344;2022-08-21T06:51:01;2.03;;;1.33;;
14282;SDS011;7225;59.282;18.344;2022-08-21T06:53:32;6.67;;;1.80;;
14282;SDS011;7225;59.282;18.344;2022-08-21T06:56:02;11.30;;;2.70;;
14282;SDS011;7225;59.282;18.344;2022-08-21T06:58:31;8.60;;;1.90;;
14282;SDS011;7225;59.282;18.344;2022-08-21T07:01:01;7.93;;;1.83;;
14282;SDS011;7225;59.282;18.344;2022-08-21T07:03:34;5.90;;;1.90;;
14282;SDS011;7225;59.282;18.344;2022-08-21T07:06:05;6.40;;;1.60;;
14282;SDS011;7225;59.282;18.344;2022-08-21T07:08:33;7.80;;;1.80;;
14282;SDS011;7225;59.282;18.344;2022-08-21T07:11:03;6.23;;;1.77;;
14282;SDS011;7225;59.282;18.344;2022-08-21T07:13:36;5.50;;;1.50;;
14282;SDS011;7225;59.282;18.344;2022-08-21T07:16:03;5.50;;;1.70;;
14282;SDS011;7225;59.282;18.344;2022-08-21T07:18:31;3.13;;;1.53;;
14282;SDS011;7225;59.282;18.344;2022-08-21T07:21:00;7.97;;;2.20;;
14282;SDS011;7225;59.282;18.344;2022-08-21T07:23:31;4.43;;;1.80;;
14282;SDS011;7225;59.282;18.344;2022-08-21T07:26:14;6.27;;;1.73;;
14282;SDS011;7225;59.282;18.344;2022-08-21T07:28:44;4.63;;;1.40;;
14282;SDS011;7225;59.282;18.344;2022-08-21T07:31:14;6.23;;;1.60;;
14282;SDS011;7225;59.282;18.344;2022-08-21T07:33:45;4.87;;;1.50;;
14282;SDS011;7225;59.282;18.344;2022-08-21T07:36:15;6.13;;;2.00;;
14282;SDS011;7225;59.282;18.344;2022-08-21T07:38:44;6.03;;;1.93;;
14282;SDS011;7225;59.282;18.344;2022-08-21T07:41:15;7.53;;;1.80;;
14282;SDS011;7225;59.282;18.344;2022-08-21T07:43:52;4.33;;;1.40;;
14282;SDS011;7225;59.282;18.344;2022-08-21T07:46:21;6.07;;;1.40;;
14282;SDS011;7225;59.282;18.344;2022-08-21T07:48:48;5.87;;;1.80;;
14282;SDS011;7225;59.282;18.344;2022-08-21T07:51:21;6.60;;;1.97;;
14282;SDS011;7225;59.282;18.344;2022-08-21T07:53:52;7.70;;;1.90;;
14282;SDS011;7225;59.282;18.344;2022-08-21T07:56:22;5.80;;;1.70;;
14282;SDS011;7225;59.282;18.344;2022-08-21T07:58:50;9.40;;;1.83;;
14282;SDS011;7225;59.282;18.344;2022-08-21T08:01:18;6.60;;;1.53;;
14282;SDS011;7225;59.282;18.344;2022-08-21T08:03:48;8.37;;;2.30;;
14282;SDS011;7225;59.282;18.344;2022-08-21T08:06:16;6.33;;;1.90;;
14282;SDS011;7225;59.282;18.344;2022-08-21T08:08:45;6.50;;;1.73;;
14282;SDS011;7225;59.282;18.344;2022-08-21T08:11:12;8.30;;;2.53;;
14282;SDS011;7225;59.282;18.344;2022-08-21T08:13:46;7.30;;;1.87;;
14282;SDS011;7225;59.282;18.344;2022-08-21T08:16:17;7.20;;;2.40;;
14282;SDS011;7225;59.282;18.344;2022-08-21T08:18:45;5.50;;;1.93;;
14282;SDS011;7225;59.282;18.344;2022-08-21T08:21:13;4.93;;;1.93;;
14282;SDS011;7225;59.282;18.344;2022-08-21T08:23:42;6.37;;;1.87;;
14282;SDS011;7225;59.282;18.344;2022-08-21T08:26:12;7.20;;;2.07;;
14282;SDS011;7225;59.282;18.344;2022-08-21T08:28:42;4.67;;;1.80;;
14282;SDS011;7225;59.282;18.344;2022-08-21T08:31:10;6.13;;;1.67;;
14282;SDS011;7225;59.282;18.344;2022-08-21T08:33:38;5.27;;;1.83;;
14282;SDS011;7225;59.282;18.344;2022-08-21T08:36:14;7.47;;;1.50;;
14282;SDS011;7225;59.282;18.344;2022-08-21T08:38:46;6.67;;;1.90;;
14282;SDS011;7225;59.282;18.344;2022-08-21T08:41:17;6.13;;;2.57;;
14282;SDS011;7225;59.282;18.344;2022-08-21T08:43:51;4.70;;;1.50;;
14282;SDS011;7225;59.282;18.344;2022-08-21T08:46:33;7.87;;;1.87;;
14282;SDS011;7225;59.282;18.344;2022-08-21T08:49:13;7.77;;;2.20;;
14282;SDS011;7225;59.282;18.344;2022-08-21T08:51:51;6.63;;;1.90;;
14282;SDS011;7225;59.282;18.344;2022-08-21T08:54:31;7.70;;;1.97;;
14282;SDS011;7225;59.282;18.344;2022-08-21T08:57:20;7.70;;;1.90;;
14282;SDS011;7225;59.282;18.344;2022-08-21T08:59:50;6.40;;;1.67;;
14282;SDS011;7225;59.282;18.344;2022-08-21T09:02:25;7.90;;;2.13;;
14282;SDS011;7225;59.282;18.344;2022-08-21T09:04:58;6.30;;;1.93;;
14282;SDS011;7225;59.282;18.344;2022-08-21T09:12:43;4.97;;;1.90;;
14282;SDS011;7225;59.282;18.344;2022-08-21T09:26:30;8.83;;;2.50;;
14282;SDS011;7225;59.282;18.344;2022-08-21T09:29:06;8.97;;;2.10;;
14282;SDS011;7225;59.282;18.344;2022-08-21T09:31:37;6.50;;;1.90;;
14282;SDS011;7225;59.282;18.344;2022-08-21T09:34:07;5.17;;;2.13;;
14282;SDS011;7225;59.282;18.344;2022-08-21T09:39:08;3.93;;;1.40;;
14282;SDS011;7225;59.282;18.344;2022-08-21T09:41:38;4.77;;;1.47;;
14282;SDS011;7225;59.282;18.344;2022-08-21T09:44:07;3.97;;;1.73;;
14282;SDS011;7225;59.282;18.344;2022-08-21T09:46:37;6.43;;;1.80;;
14282;SDS011;7225;59.282;18.344;2022-08-21T09:49:04;4.70;;;1.53;;
14282;SDS011;7225;59.282;18.344;2022-08-21T09:51:49;6.57;;;2.33;;
14282;SDS011;7225;59.282;18.344;2022-08-21T09:54:18;6.60;;;1.87;;
14282;SDS011;7225;59.282;18.344;2022-08-21T09:56:56;6.60;;;1.77;;
14282;SDS011;7225;59.282;18.344;2022-08-21T09:59:45;4.47;;;1.90;;
14282;SDS011;7225;59.282;18.344;2022-08-21T10:02:31;4.70;;;1.83;;
14282;SDS011;7225;59.282;18.344;2022-08-21T10:05:01;3.40;;;1.83;;
14282;SDS011;7225;59.282;18.344;2022-08-21T10:07:30;5.73;;;1.60;;
14282;SDS011;7225;59.282;18.344;2022-08-21T10:10:00;3.57;;;2.10;;
14282;SDS011;7225;59.282;18.344;2022-08-21T10:12:42;7.43;;;2.33;;
14282;SDS011;7225;59.282;18.344;2022-08-21T10:15:36;4.20;;;1.67;;
14282;SDS011;7225;59.282;18.344;2022-08-21T10:20:52;6.35;;;1.40;;
14282;SDS011;7225;59.282;18.344;2022-08-21T10:29:56;5.97;;;1.67;;
14282;SDS011;7225;59.282;18.344;2022-08-21T10:37:52;4.87;;;1.60;;
14282;SDS011;7225;59.282;18.344;2022-08-21T10:46:36;3.60;;;1.65;;
14282;SDS011;7225;59.282;18.344;2022-08-21T10:54:55;4.35;;;1.27;;
14282;SDS011;7225;59.282;18.344;2022-08-21T11:00:16;4.05;;;1.42;;
14282;SDS011;7225;59.282;18.344;2022-08-21T11:03:19;2.40;;;1.48;;
14282;SDS011;7225;59.282;18.344;2022-08-21T11:06:31;5.53;;;2.22;;
14282;SDS011;7225;59.282;18.344;2022-08-21T11:08:55;6.40;;;1.50;;
14282;SDS011;7225;59.282;18.344;2022-08-21T11:11:47;15.88;;;5.10;;
14282;SDS011;7225;59.282;18.344;2022-08-21T11:14:46;8.52;;;2.65;;
14282;SDS011;7225;59.282;18.344;2022-08-21T11:18:00;12.68;;;3.97;;
14282;SDS011;7225;59.282;18.344;2022-08-21T11:20:28;2.95;;;1.15;;
14282;SDS011;7225;59.282;18.344;2022-08-21T11:23:23;5.97;;;1.48;;
14282;SDS011;7225;59.282;18.344;2022-08-21T11:26:04;4.78;;;1.00;;
14282;SDS011;7225;59.282;18.344;2022-08-21T11:28:45;6.13;;;1.55;;
14282;SDS011;7225;59.282;18.344;2022-08-21T11:31:39;2.67;;;1.27;;
14282;SDS011;7225;59.282;18.344;2022-08-21T11:36:58;1.83;;;1.05;;
14282;SDS011;7225;59.282;18.344;2022-08-21T11:42:20;3.13;;;1.23;;
14282;SDS011;7225;59.282;18.344;2022-08-21T11:47:56;6.10;;;1.00;;
14282;SDS011;7225;59.282;18.344;2022-08-21T11:50:55;4.55;;;1.25;;
14282;SDS011;7225;59.282;18.344;2022-08-21T11:53:26;3.78;;;0.93;;
14282;SDS011;7225;59.282;18.344;2022-08-21T11:56:11;3.00;;;0.90;;
14282;SDS011;7225;59.282;18.344;2022-08-21T11:58:45;3.97;;;1.52;;
14282;SDS011;7225;59.282;18.344;2022-08-21T12:01:28;3.30;;;0.93;;
14282;SDS011;7225;59.282;18.344;2022-08-21T12:04:05;4.53;;;1.30;;
14282;SDS011;7225;59.282;18.344;2022-08-21T12:06:46;2.67;;;1.20;;
14282;SDS011;7225;59.282;18.344;2022-08-21T12:12:02;3.55;;;1.27;;
14282;SDS011;7225;59.282;18.344;2022-08-21T12:14:36;4.22;;;0.98;;
14282;SDS011;7225;59.282;18.344;2022-08-21T12:17:07;2.60;;;1.00;;
14282;SDS011;7225;59.282;18.344;2022-08-21T12:19:39;5.78;;;1.55;;
14282;SDS011;7225;59.282;18.344;2022-08-21T12:22:10;2.83;;;1.15;;
14282;SDS011;7225;59.282;18.344;2022-08-21T12:24:50;3.92;;;1.00;;
14282;SDS011;7225;59.282;18.344;2022-08-21T12:27:40;4.05;;;1.42;;
14282;SDS011;7225;59.282;18.344;2022-08-21T12:35:52;2.72;;;0.88;;
14282;SDS011;7225;59.282;18.344;2022-08-21T12:41:14;4.88;;;1.15;;
14282;SDS011;7225;59.282;18.344;2022-08-21T12:43:47;1.77;;;0.75;;
14282;SDS011;7225;59.282;18.344;2022-08-21T12:49:28;1.58;;;0.82;;
14282;SDS011;7225;59.282;18.344;2022-08-21T12:52:07;2.10;;;0.70;;
14282;SDS011;7225;59.282;18.344;2022-08-21T12:54:41;2.40;;;0.63;;
14282;SDS011;7225;59.282;18.344;2022-08-21T12:57:16;2.85;;;0.93;;
14282;SDS011;7225;59.282;18.344;2022-08-21T12:59:59;2.35;;;1.10;;
14282;SDS011;7225;59.282;18.344;2022-08-21T13:02:36;2.45;;;0.75;;
14282;SDS011;7225;59.282;18.344;2022-08-21T13:05:15;2.50;;;1.05;;
14282;SDS011;7225;59.282;18.344;2022-08-21T13:07:50;2.10;;;0.77;;
14282;SDS011;7225;59.282;18.344;2022-08-21T13:10:20;4.53;;;1.15;;
14282;SDS011;7225;59.282;18.344;2022-08-21T13:12:49;1.88;;;0.80;;
14282;SDS011;7225;59.282;18.344;2022-08-21T13:15:31;1.70;;;0.73;;
14282;SDS011;7225;59.282;18.344;2022-08-21T13:18:01;3.22;;;1.00;;
14282;SDS011;7225;59.282;18.344;2022-08-21T13:23:07;1.58;;;0.77;;
14282;SDS011;7225;59.282;18.344;2022-08-21T13:25:52;2.63;;;0.65;;
14282;SDS011;7225;59.282;18.344;2022-08-21T13:28:22;2.28;;;0.77;;
14282;SDS011;7225;59.282;18.344;2022-08-21T13:30:51;2.13;;;1.15;;
14282;SDS011;7225;59.282;18.344;2022-08-21T13:33:21;1.20;;;0.40;;
14282;SDS011;7225;59.282;18.344;2022-08-21T13:36:05;1.75;;;0.75;;
14282;SDS011;7225;59.282;18.344;2022-08-21T13:38:39;1.42;;;0.73;;
14282;SDS011;7225;59.282;18.344;2022-08-21T13:43:50;1.92;;;0.80;;
14282;SDS011;7225;59.282;18.344;2022-08-21T13:46:32;1.00;;;0.70;;
14282;SDS011;7225;59.282;18.344;2022-08-21T13:49:03;3.08;;;0.60;;
14282;SDS011;7225;59.282;18.344;2022-08-21T13:51:33;1.95;;;0.60;;
14282;SDS011;7225;59.282;18.344;2022-08-21T13:54:22;1.73;;;0.50;;
14282;SDS011;7225;59.282;18.344;2022-08-21T13:56:50;1.42;;;0.60;;
14282;SDS011;7225;59.282;18.344;2022-08-21T13:59:24;2.88;;;0.55;;
14282;SDS011;7225;59.282;18.344;2022-08-21T14:04:37;1.00;;;0.90;;
14282;SDS011;7225;59.282;18.344;2022-08-21T14:07:20;2.78;;;0.57;;
14282;SDS011;7225;59.282;18.344;2022-08-21T14:09:53;1.10;;;0.60;;
14282;SDS011;7225;59.282;18.344;2022-08-21T14:12:28;2.15;;;0.52;;
14282;SDS011;7225;59.282;18.344;2022-08-21T14:15:01;4.60;;;0.70;;
14282;SDS011;7225;59.282;18.344;2022-08-21T14:17:34;2.05;;;0.70;;
14282;SDS011;7225;59.282;18.344;2022-08-21T14:20:05;2.58;;;0.80;;
14282;SDS011;7225;59.282;18.344;2022-08-21T14:27:56;2.03;;;0.40;;
14282;SDS011;7225;59.282;18.344;2022-08-21T14:30:46;1.67;;;0.55;;
14282;SDS011;7225;59.282;18.344;2022-08-21T14:33:31;3.38;;;0.77;;
14282;SDS011;7225;59.282;18.344;2022-08-21T14:36:00;1.23;;;0.60;;
14282;SDS011;7225;59.282;18.344;2022-08-21T14:38:29;1.40;;;0.70;;
14282;SDS011;7225;59.282;18.344;2022-08-21T14:40:57;0.80;;;0.35;;
14282;SDS011;7225;59.282;18.344;2022-08-21T14:43:28;2.80;;;0.60;;
14282;SDS011;7225;59.282;18.344;2022-08-21T14:45:57;1.95;;;0.73;;
14282;SDS011;7225;59.282;18.344;2022-08-21T14:48:24;5.15;;;0.88;;
14282;SDS011;7225;59.282;18.344;2022-08-21T14:50:52;1.33;;;0.68;;
14282;SDS011;7225;59.282;18.344;2022-08-21T14:53:26;2.30;;;0.80;;
14282;SDS011;7225;59.282;18.344;2022-08-21T14:55:54;0.75;;;0.40;;
14282;SDS011;7225;59.282;18.344;2022-08-21T14:58:32;1.20;;;0.70;;
14282;SDS011;7225;59.282;18.344;2022-08-21T15:01:09;1.35;;;0.50;;
14282;SDS011;7225;59.282;18.344;2022-08-21T15:03:38;3.00;;;0.93;;
14282;SDS011;7225;59.282;18.344;2022-08-21T15:06:08;1.23;;;0.75;;
14282;SDS011;7225;59.282;18.344;2022-08-21T15:08:36;2.05;;;0.70;;
14282;SDS011;7225;59.282;18.344;2022-08-21T15:11:05;1.20;;;0.57;;
14282;SDS011;7225;59.282;18.344;2022-08-21T15:13:40;2.22;;;0.70;;
14282;SDS011;7225;59.282;18.344;2022-08-21T15:16:08;0.93;;;0.55;;
14282;SDS011;7225;59.282;18.344;2022-08-21T15:18:38;3.53;;;0.70;;
14282;SDS011;7225;59.282;18.344;2022-08-21T15:21:07;1.27;;;0.70;;
14282;SDS011;7225;59.282;18.344;2022-08-21T15:23:37;1.40;;;0.60;;
14282;SDS011;7225;59.282;18.344;2022-08-21T15:26:09;1.67;;;0.82;;
14282;SDS011;7225;59.282;18.344;2022-08-21T15:28:37;2.75;;;0.77;;
14282;SDS011;7225;59.282;18.344;2022-08-21T15:31:06;2.90;;;0.85;;
14282;SDS011;7225;59.282;18.344;2022-08-21T15:33:33;1.35;;;0.82;;
14282;SDS011;7225;59.282;18.344;2022-08-21T15:36:01;1.85;;;0.50;;
14282;SDS011;7225;59.282;18.344;2022-08-21T15:38:29;1.15;;;0.63;;
14282;SDS011;7225;59.282;18.344;2022-08-21T15:40:58;1.77;;;0.80;;
14282;SDS011;7225;59.282;18.344;2022-08-21T15:43:29;2.25;;;0.93;;
14282;SDS011;7225;59.282;18.344;2022-08-21T15:46:01;0.88;;;0.60;;
14282;SDS011;7225;59.282;18.344;2022-08-21T15:48:30;1.45;;;0.88;;
14282;SDS011;7225;59.282;18.344;2022-08-21T15:50:58;0.90;;;0.63;;
14282;SDS011;7225;59.282;18.344;2022-08-21T15:53:25;1.83;;;0.75;;
14282;SDS011;7225;59.282;18.344;2022-08-21T15:55:55;1.80;;;0.60;;
14282;SDS011;7225;59.282;18.344;2022-08-21T15:58:22;1.83;;;0.68;;
14282;SDS011;7225;59.282;18.344;2022-08-21T16:00:50;1.60;;;0.55;;
14282;SDS011;7225;59.282;18.344;2022-08-21T16:03:18;0.93;;;0.55;;
14282;SDS011;7225;59.282;18.344;2022-08-21T16:05:50;1.92;;;0.85;;
14282;SDS011;7225;59.282;18.344;2022-08-21T16:08:20;3.65;;;0.77;;
14282;SDS011;7225;59.282;18.344;2022-08-21T16:10:49;1.15;;;0.70;;
14282;SDS011;7225;59.282;18.344;2022-08-21T16:13:22;1.63;;;0.60;;
14282;SDS011;7225;59.282;18.344;2022-08-21T16:15:55;1.40;;;0.60;;
14282;SDS011;7225;59.282;18.344;2022-08-21T16:18:23;5.03;;;1.00;;
14282;SDS011;7225;59.282;18.344;2022-08-21T16:20:52;1.55;;;0.80;;
14282;SDS011;7225;59.282;18.344;2022-08-21T16:23:21;2.78;;;0.60;;
14282;SDS011;7225;59.282;18.344;2022-08-21T16:25:49;0.98;;;0.73;;
14282;SDS011;7225;59.282;18.344;2022-08-21T16:28:18;1.70;;;0.60;;
14282;SDS011;7225;59.282;18.344;2022-08-21T16:30:48;1.15;;;0.60;;
14282;SDS011;7225;59.282;18.344;2022-08-21T16:33:27;1.77;;;0.68;;
14282;SDS011;7225;59.282;18.344;2022-08-21T16:36:00;2.50;;;0.60;;
14282;SDS011;7225;59.282;18.344;2022-08-21T16:38:28;3.33;;;0.75;;
14282;SDS011;7225;59.282;18.344;2022-08-21T16:40:56;2.42;;;0.70;;